Time;durP1;ratioP1;P1;durP2;ratioP2;P2;SDS_P1;SDS_P2;PMS_P1;PMS_P2;Temp;Humidity;BMP_temperature;BMP_pressure;BME280_temperature;BME280_humidity;BME280_pressure;Samples;Min_cycle;Max_cycle;Signal;HPM_P1;HPM_P2
2021/03/12 00:00:36;;;;;;;;;;;6.30;99.90;;;;;;5075317;28;19928;-79
2021/03/12 00:03:04;;;;;;;;;;;6.30;99.90;;;;;;5075646;28;19932;-78
2021/03/12 00:05:30;;;;;;;;;;;6.40;99.90;;;;;;5075050;28;19928;-78
2021/03/12 00:07:57;;;;;;;;;;;6.50;99.90;;;;;;5075018;28;19925;-78
2021/03/12 00:10:24;;;;;;;;;;;6.60;99.90;;;;;;5074704;28;19931;-78
2021/03/12 00:12:50;;;;;;;;;;;6.60;99.90;;;;;;5075859;28;19924;-77
2021/03/12 00:15:24;;;;;;;;;;;6.60;99.90;;;;;;5076794;28;19955;-78
2021/03/12 00:17:51;;;;;;;;;;;6.60;99.90;;;;;;5075733;28;20026;-78
2021/03/12 00:20:17;;;;;;;;;;;6.60;99.90;;;;;;5075537;28;19970;-78
2021/03/12 00:22:43;;;;;;;;;;;6.50;99.90;;;;;;5075021;28;19925;-78
2021/03/12 00:25:11;;;;;;;;;;;6.50;99.90;;;;;;5075657;28;19931;-78
2021/03/12 00:27:37;;;;;;;;;;;6.50;99.90;;;;;;5078489;28;20276;-78
2021/03/12 00:30:04;;;;;;;;;;;6.60;99.90;;;;;;5078943;28;19931;-78
2021/03/12 00:32:30;;;;;;;;;;;6.60;99.90;;;;;;5079575;28;19929;-78
2021/03/12 00:34:56;;;;;;;;;;;6.60;99.90;;;;;;5079057;28;19925;-78
2021/03/12 00:37:22;;;;;;;;;;;6.60;99.90;;;;;;5078225;28;20426;-78
2021/03/12 00:39:48;;;;;;;;;;;6.60;99.90;;;;;;5078714;28;19928;-78
2021/03/12 00:42:15;;;;;;;;;;;6.60;99.90;;;;;;5078825;28;19928;-78
2021/03/12 00:44:41;;;;;;;;;;;6.70;99.90;;;;;;5078819;28;19932;-78
2021/03/12 00:47:07;;;;;;;;;;;6.70;99.90;;;;;;5078180;28;20303;-78
2021/03/12 00:49:32;;;;;;;;;;;6.60;99.90;;;;;;5078600;28;19925;-78
2021/03/12 00:51:58;;;;;;;;;;;6.60;99.90;;;;;;5078413;28;19924;-78
2021/03/12 00:54:24;;;;;;;;;;;6.60;99.90;;;;;;5078378;28;19929;-78
2021/03/12 00:56:50;;;;;;;;;;;6.50;99.90;;;;;;5077810;28;20422;-78
2021/03/12 00:59:17;;;;;;;;;;;6.50;99.90;;;;;;5077615;28;19928;-78
2021/03/12 01:01:43;;;;;;;;;;;6.60;99.90;;;;;;5078169;28;19931;-78
2021/03/12 01:04:09;;;;;;;;;;;6.60;99.90;;;;;;5078208;28;19925;-78
2021/03/12 01:06:35;;;;;;;;;;;6.60;99.90;;;;;;5078289;28;19925;-78
2021/03/12 01:09:01;;;;;;;;;;;6.60;99.90;;;;;;5077556;28;20307;-78
2021/03/12 01:11:27;;;;;;;;;;;6.60;99.90;;;;;;5078438;28;19924;-78
2021/03/12 01:13:53;;;;;;;;;;;6.60;99.90;;;;;;5078053;28;19931;-78
2021/03/12 01:16:20;;;;;;;;;;;6.70;99.90;;;;;;5077570;28;19928;-78
2021/03/12 01:18:47;;;;;;;;;;;6.70;99.90;;;;;;5077078;28;19931;-78
2021/03/12 01:21:13;;;;;;;;;;;6.80;99.90;;;;;;5076731;28;19970;-78
2021/03/12 01:23:39;;;;;;;;;;;6.80;99.90;;;;;;5076370;28;19931;-78
2021/03/12 01:26:06;;;;;;;;;;;6.80;99.90;;;;;;5077223;28;20288;-78
2021/03/12 01:28:32;;;;;;;;;;;6.80;99.90;;;;;;5076994;28;19925;-78
2021/03/12 01:30:58;;;;;;;;;;;6.80;99.90;;;;;;5077581;28;19935;-78
2021/03/12 01:33:24;;;;;;;;;;;6.80;99.90;;;;;;5077255;28;19924;-78
2021/03/12 01:35:50;;;;;;;;;;;6.80;99.90;;;;;;5077197;28;19932;-78
2021/03/12 01:38:16;;;;;;;;;;;6.80;99.90;;;;;;5076302;28;19932;-78
2021/03/12 01:40:45;;;;;;;;;;;6.80;99.90;;;;;;5077353;28;19924;-78
2021/03/12 01:43:11;;;;;;;;;;;6.70;99.90;;;;;;5076861;28;19955;-78
2021/03/12 01:45:39;;;;;;;;;;;6.70;99.90;;;;;;5077193;28;19950;-78
2021/03/12 01:48:06;;;;;;;;;;;6.70;99.90;;;;;;5078842;28;19924;-78
2021/03/12 01:50:34;;;;;;;;;;;6.70;99.90;;;;;;5080081;28;20431;-79
2021/03/12 01:53:01;;;;;;;;;;;6.70;99.90;;;;;;5078176;28;21270;-79
2021/03/12 01:55:29;;;;;;;;;;;6.70;99.90;;;;;;5078977;28;19932;-79
2021/03/12 01:57:55;;;;;;;;;;;6.60;99.90;;;;;;5078264;28;19925;-78
2021/03/12 02:00:21;;;;;;;;;;;6.60;99.90;;;;;;5077988;28;19931;-79
2021/03/12 02:02:47;;;;;;;;;;;6.60;99.90;;;;;;5078219;28;19952;-79
2021/03/12 02:05:14;;;;;;;;;;;6.60;99.90;;;;;;5078124;28;19935;-79
2021/03/12 02:07:41;;;;;;;;;;;6.60;99.90;;;;;;5059372;28;20053;-78
2021/03/12 02:10:09;;;;;;;;;;;6.80;99.90;;;;;;5056642;28;19925;-78
2021/03/12 02:12:37;;;;;;;;;;;6.70;99.90;;;;;;5056751;28;20384;-78
2021/03/12 02:15:05;;;;;;;;;;;6.70;99.90;;;;;;5064236;28;19932;-78
2021/03/12 02:17:37;;;;;;;;;;;6.70;99.90;;;;;;5074133;28;19925;-77
2021/03/12 02:20:16;;;;;;;;;;;6.70;99.90;;;;;;5074468;28;19956;-77
2021/03/12 02:22:55;;;;;;;;;;;6.60;99.90;;;;;;5074539;28;19924;-78
2021/03/12 02:25:21;;;;;;;;;;;6.50;99.90;;;;;;5074309;28;20330;-77
2021/03/12 02:27:48;;;;;;;;;;;6.40;99.90;;;;;;5073922;28;20380;-77
2021/03/12 02:30:15;;;;;;;;;;;6.30;99.90;;;;;;5073836;28;19935;-78
2021/03/12 02:32:43;;;;;;;;;;;6.10;99.90;;;;;;5074227;28;19928;-77
2021/03/12 02:35:12;;;;;;;;;;;6.00;99.90;;;;;;5074181;28;19960;-77
2021/03/12 02:37:39;;;;;;;;;;;6.00;99.90;;;;;;5073595;28;19924;-77
2021/03/12 02:40:06;;;;;;;;;;;6.00;99.90;;;;;;5074076;28;20371;-77
2021/03/12 02:42:32;;;;;;;;;;;5.90;99.90;;;;;;5074300;28;20299;-78
2021/03/12 02:45:00;;;;;;;;;;;5.80;99.90;;;;;;5074504;28;19932;-78
2021/03/12 02:47:27;;;;;;;;;;;5.80;99.90;;;;;;5074178;28;19931;-78
2021/03/12 02:49:53;;;;;;;;;;;5.70;99.90;;;;;;5073477;28;20408;-78
2021/03/12 02:52:19;;;;;;;;;;;5.60;99.90;;;;;;5075054;28;19929;-78
2021/03/12 02:54:46;;;;;;;;;;;5.60;99.90;;;;;;5074989;28;20376;-78
2021/03/12 02:57:13;;;;;;;;;;;5.50;99.90;;;;;;5074981;28;19939;-78
2021/03/12 02:59:39;;;;;;;;;;;5.50;99.90;;;;;;5074604;28;19928;-79
2021/03/12 03:02:08;;;;;;;;;;;5.40;99.90;;;;;;5074922;28;19974;-78
2021/03/12 03:04:34;;;;;;;;;;;5.30;99.90;;;;;;5074771;28;19928;-78
2021/03/12 03:07:01;;;;;;;;;;;5.20;99.90;;;;;;5074719;28;19959;-78
2021/03/12 03:09:28;;;;;;;;;;;5.20;99.90;;;;;;5074733;28;19954;-78
2021/03/12 03:11:58;;;;;;;;;;;5.10;99.90;;;;;;5074727;28;19924;-78
2021/03/12 03:14:38;;;;;;;;;;;5.10;99.90;;;;;;5075104;28;19974;-78
2021/03/12 03:17:05;;;;;;;;;;;5.10;99.90;;;;;;5075229;28;19932;-78
2021/03/12 03:19:35;;;;;;;;;;;5.00;99.90;;;;;;5074607;28;19932;-78
2021/03/12 03:22:01;;;;;;;;;;;5.00;99.90;;;;;;5075080;28;19929;-78
2021/03/12 03:24:35;;;;;;;;;;;5.00;99.90;;;;;;5059957;28;19925;-77
2021/03/12 03:27:01;;;;;;;;;;;5.00;99.90;;;;;;5074925;28;19971;-79
2021/03/12 03:29:27;;;;;;;;;;;5.00;99.90;;;;;;5074822;28;19929;-78
2021/03/12 03:31:53;;;;;;;;;;;4.90;99.90;;;;;;5075235;28;19966;-78
2021/03/12 03:34:19;;;;;;;;;;;4.90;99.90;;;;;;5074982;28;20391;-78
2021/03/12 03:36:46;;;;;;;;;;;4.90;99.90;;;;;;5074595;28;19971;-77
2021/03/12 03:39:12;;;;;;;;;;;5.00;99.90;;;;;;5074171;28;19931;-78
2021/03/12 03:41:40;;;;;;;;;;;5.00;99.90;;;;;;5075088;28;19929;-78
2021/03/12 03:44:06;;;;;;;;;;;5.00;99.90;;;;;;5074924;28;20306;-78
2021/03/12 03:46:35;;;;;;;;;;;5.00;99.90;;;;;;5074523;28;19928;-78
2021/03/12 03:49:01;;;;;;;;;;;5.00;99.90;;;;;;5074402;28;19932;-78
2021/03/12 03:51:28;;;;;;;;;;;5.00;99.90;;;;;;5075003;28;19924;-78
2021/03/12 03:53:55;;;;;;;;;;;6.00;99.90;;;;;;5074639;28;19924;-78
2021/03/12 04:01:44;;;;;;;;;;;5.00;99.90;;;;;;5077031;28;19925;-78
2021/03/12 04:04:10;;;;;;;;;;;5.00;99.90;;;;;;5078833;28;19932;-78
2021/03/12 04:06:39;;;;;;;;;;;4.90;99.90;;;;;;5078593;28;19931;-78
2021/03/12 04:09:20;;;;;;;;;;;4.90;99.90;;;;;;5078305;28;19956;-78
2021/03/12 04:11:47;;;;;;;;;;;4.90;99.90;;;;;;5079004;28;19939;-78
2021/03/12 04:14:22;;;;;;;;;;;4.90;99.90;;;;;;5077832;28;19924;-77
2021/03/12 04:16:48;;;;;;;;;;;5.00;99.90;;;;;;5077458;28;19924;-78
2021/03/12 04:19:14;;;;;;;;;;;5.00;99.90;;;;;;5077997;28;20372;-78
2021/03/12 04:21:41;;;;;;;;;;;5.00;99.90;;;;;;5078551;28;19947;-78
2021/03/12 04:24:10;;;;;;;;;;;5.00;99.90;;;;;;5078007;28;20299;-78
2021/03/12 04:26:38;;;;;;;;;;;5.10;99.90;;;;;;5078315;28;19978;-78
2021/03/12 04:29:04;;;;;;;;;;;5.10;99.90;;;;;;5078229;28;19932;-78
2021/03/12 04:31:32;;;;;;;;;;;5.20;99.90;;;;;;5078275;28;19929;-79
2021/03/12 04:33:58;;;;;;;;;;;5.10;99.90;;;;;;5078407;28;19936;-78
2021/03/12 04:36:25;;;;;;;;;;;5.10;99.90;;;;;;5077393;28;19925;-78
2021/03/12 04:38:51;;;;;;;;;;;5.10;99.90;;;;;;5077814;28;19924;-78
2021/03/12 04:41:19;;;;;;;;;;;5.10;99.90;;;;;;5077818;28;20380;-79
2021/03/12 04:43:45;;;;;;;;;;;5.20;99.90;;;;;;5078328;28;19946;-78
2021/03/12 04:46:13;;;;;;;;;;;5.10;99.90;;;;;;5077544;28;19931;-78
2021/03/12 04:48:40;;;;;;;;;;;5.10;99.90;;;;;;5077393;28;19928;-78
2021/03/12 04:51:08;;;;;;;;;;;5.10;99.90;;;;;;5077768;28;19939;-78
2021/03/12 04:53:34;;;;;;;;;;;5.10;99.90;;;;;;5077745;28;19928;-78
2021/03/12 04:56:00;;;;;;;;;;;5.10;99.90;;;;;;5077372;28;19925;-78
2021/03/12 04:58:28;;;;;;;;;;;5.10;99.90;;;;;;5077857;28;20296;-78
2021/03/12 05:00:54;;;;;;;;;;;5.10;99.90;;;;;;5080264;28;19924;-78
2021/03/12 05:03:21;;;;;;;;;;;5.40;99.90;;;;;;5079603;28;19925;-78
2021/03/12 05:05:54;;;;;;;;;;;5.20;99.90;;;;;;5079305;28;19925;-78
2021/03/12 05:08:21;;;;;;;;;;;5.20;99.90;;;;;;5079436;28;20299;-79
2021/03/12 05:10:53;;;;;;;;;;;5.20;99.90;;;;;;5079129;28;19924;-79
2021/03/12 05:13:19;;;;;;;;;;;5.30;99.90;;;;;;5077017;28;19928;-78
2021/03/12 05:15:46;;;;;;;;;;;5.30;99.90;;;;;;5077534;28;19925;-78
2021/03/12 05:18:12;;;;;;;;;;;5.30;99.90;;;;;;5077454;28;20500;-78
2021/03/12 05:20:38;;;;;;;;;;;5.30;99.90;;;;;;5077846;28;19925;-79
2021/03/12 05:23:04;;;;;;;;;;;5.40;99.90;;;;;;5078213;28;20279;-79
2021/03/12 05:25:30;;;;;;;;;;;5.30;99.90;;;;;;5078546;28;19981;-79
2021/03/12 05:27:56;;;;;;;;;;;5.30;99.90;;;;;;5078558;28;19931;-80
2021/03/12 05:30:22;;;;;;;;;;;5.30;99.90;;;;;;5079016;28;19931;-79
2021/03/12 05:32:49;;;;;;;;;;;5.30;99.90;;;;;;5078651;28;19951;-79
2021/03/12 05:35:15;;;;;;;;;;;5.30;99.90;;;;;;5078803;28;19956;-79
2021/03/12 05:37:42;;;;;;;;;;;;;;;;;;5077605;28;20291;-79
2021/03/12 05:40:08;;;;;;;;;;;5.20;99.90;;;;;;5077860;28;19932;-78
2021/03/12 05:42:35;;;;;;;;;;;5.20;99.90;;;;;;5077349;28;19932;-78
2021/03/12 05:45:01;;;;;;;;;;;5.30;99.90;;;;;;5077456;28;20534;-77
2021/03/12 05:47:27;;;;;;;;;;;5.30;99.90;;;;;;5075214;28;19932;-78
2021/03/12 05:49:54;;;;;;;;;;;5.20;99.90;;;;;;5075237;28;19935;-77
2021/03/12 05:52:20;;;;;;;;;;;5.30;99.90;;;;;;5075063;28;19978;-77
2021/03/12 05:54:46;;;;;;;;;;;5.20;99.90;;;;;;5075085;28;20407;-78
2021/03/12 05:57:14;;;;;;;;;;;5.10;99.90;;;;;;5074865;28;19928;-78
2021/03/12 05:59:41;;;;;;;;;;;5.10;99.90;;;;;;5076038;28;19951;-78
2021/03/12 06:02:07;;;;;;;;;;;5.10;99.90;;;;;;5077130;28;19931;-77
2021/03/12 06:04:33;;;;;;;;;;;;;;;;;;5074726;28;19925;-77
2021/03/12 06:07:00;;;;;;;;;;;5.00;99.90;;;;;;5074680;28;19959;-77
2021/03/12 06:09:26;;;;;;;;;;;5.00;99.90;;;;;;5075205;28;19925;-78
2021/03/12 06:11:52;;;;;;;;;;;5.00;99.90;;;;;;5076129;28;19936;-77
2021/03/12 06:14:18;;;;;;;;;;;4.90;99.90;;;;;;5075609;28;19925;-78
2021/03/12 06:16:47;;;;;;;;;;;4.90;99.90;;;;;;5075177;28;19924;-77
2021/03/12 06:19:14;;;;;;;;;;;4.90;99.90;;;;;;5074389;28;19925;-76
2021/03/12 06:21:41;;;;;;;;;;;5.00;99.90;;;;;;5073106;28;19931;-74
2021/03/12 06:24:22;;;;;;;;;;;5.00;99.90;;;;;;5073371;28;19925;-74
2021/03/12 06:26:50;;;;;;;;;;;5.00;99.90;;;;;;5078545;28;19924;-75
2021/03/12 06:29:16;;;;;;;;;;;5.10;99.90;;;;;;5072684;28;19932;-73
2021/03/12 06:31:49;;;;;;;;;;;5.00;99.90;;;;;;5073212;28;19931;-77
2021/03/12 06:34:16;;;;;;;;;;;5.00;99.90;;;;;;5074697;28;19978;-79
2021/03/12 06:36:42;;;;;;;;;;;5.00;99.90;;;;;;5075539;28;19931;-75
2021/03/12 06:39:08;;;;;;;;;;;5.10;99.90;;;;;;5076672;28;19925;-79
2021/03/12 06:41:36;;;;;;;;;;;5.90;99.90;;;;;;5074365;28;19928;-77
2021/03/12 06:44:17;;;;;;;;;;;5.20;99.90;;;;;;5072814;28;19932;-77
2021/03/12 06:46:44;;;;;;;;;;;5.20;99.90;;;;;;5071248;28;19931;-78
2021/03/12 06:49:19;;;;;;;;;;;5.30;99.90;;;;;;5073720;28;19929;-80
2021/03/12 06:51:56;;;;;;;;;;;5.20;99.90;;;;;;5073675;28;19925;-77
2021/03/12 06:54:24;;;;;;;;;;;5.20;99.90;;;;;;5073191;28;19924;-74
2021/03/12 06:56:51;;;;;;;;;;;5.30;99.90;;;;;;5073524;28;19931;-77
2021/03/12 06:59:24;;;;;;;;;;;5.30;99.90;;;;;;5072414;28;19978;-74
2021/03/12 07:01:56;;;;;;;;;;;5.30;99.90;;;;;;5073548;28;19954;-76
2021/03/12 07:04:23;;;;;;;;;;;5.30;99.90;;;;;;5072938;28;19925;-74
2021/03/12 07:06:50;;;;;;;;;;;5.30;99.90;;;;;;5072358;28;19928;-76
2021/03/12 07:09:17;;;;;;;;;;;5.20;99.90;;;;;;5072602;28;19931;-75
2021/03/12 07:11:43;;;;;;;;;;;5.10;99.90;;;;;;5072982;28;19925;-76
2021/03/12 07:14:11;;;;;;;;;;;5.00;99.90;;;;;;5072935;28;19929;-75
2021/03/12 07:16:38;;;;;;;;;;;5.10;99.90;;;;;;5072728;28;19931;-75
2021/03/12 07:19:04;;;;;;;;;;;5.00;99.90;;;;;;5072978;28;20416;-76
2021/03/12 07:21:30;;;;;;;;;;;5.20;99.90;;;;;;5073343;28;19929;-77
2021/03/12 07:23:58;;;;;;;;;;;5.30;99.90;;;;;;5073132;28;19935;-76
2021/03/12 07:26:24;;;;;;;;;;;5.40;99.90;;;;;;5073001;28;19931;-76
2021/03/12 07:28:54;;;;;;;;;;;5.40;99.90;;;;;;5073261;28;19924;-77
2021/03/12 07:31:22;;;;;;;;;;;5.50;99.90;;;;;;5073470;28;19924;-77
2021/03/12 07:36:30;;;;;;;;;;;5.80;99.90;;;;;;5055582;28;20015;-77
2021/03/12 07:38:57;;;;;;;;;;;5.80;99.90;;;;;;5056551;28;19924;-77
2021/03/12 07:41:23;;;;;;;;;;;5.80;99.90;;;;;;5059585;28;19925;-76
2021/03/12 07:43:50;;;;;;;;;;;5.90;99.90;;;;;;5076892;28;20002;-77
2021/03/12 07:46:16;;;;;;;;;;;6.00;99.90;;;;;;5077156;28;19970;-78
2021/03/12 07:48:51;;;;;;;;;;;6.10;99.90;;;;;;5079058;28;19925;-78
2021/03/12 07:51:18;;;;;;;;;;;6.00;99.90;;;;;;5079043;28;20410;-78
2021/03/12 07:56:50;;;;;;;;;;;6.00;99.90;;;;;;5075976;28;19967;-73
2021/03/12 07:59:28;;;;;;;;;;;6.10;99.90;;;;;;5076816;28;19925;-76
2021/03/12 08:01:55;;;;;;;;;;;6.10;99.90;;;;;;5078145;28;20249;-77
2021/03/12 08:04:29;;;;;;;;;;;6.20;99.90;;;;;;5076792;28;19924;-76
2021/03/12 08:06:56;;;;;;;;;;;6.10;99.90;;;;;;5076383;28;19982;-76
2021/03/12 08:09:32;;;;;;;;;;;6.20;99.90;;;;;;5080173;28;19932;-77
2021/03/12 08:11:58;;;;;;;;;;;6.20;99.90;;;;;;5076576;28;19932;-76
2021/03/12 08:14:24;;;;;;;;;;;6.20;99.90;;;;;;5077085;28;19925;-76
2021/03/12 08:17:09;;;;;;;;;;;6.20;99.90;;;;;;5075679;28;19931;-74
2021/03/12 08:19:37;;;;;;;;;;;6.00;99.90;;;;;;5075689;28;20303;-73
2021/03/12 08:22:23;;;;;;;;;;;6.00;99.90;;;;;;5075816;28;19931;-75
2021/03/12 08:24:50;;;;;;;;;;;6.10;99.90;;;;;;5075074;28;20291;-75
2021/03/12 08:27:34;;;;;;;;;;;6.10;99.90;;;;;;5075453;28;19924;-74
2021/03/12 08:30:00;;;;;;;;;;;6.10;99.90;;;;;;5076232;28;20299;-76
2021/03/12 08:32:37;;;;;;;;;;;6.10;99.90;;;;;;5075935;28;19928;-77
2021/03/12 08:35:05;;;;;;;;;;;6.10;99.90;;;;;;5075954;28;19958;-74
2021/03/12 08:37:40;;;;;;;;;;;6.20;99.90;;;;;;5075563;28;20399;-78
2021/03/12 08:40:22;;;;;;;;;;;6.30;99.90;;;;;;5079706;28;19924;-77
2021/03/12 08:42:52;;;;;;;;;;;6.60;99.90;;;;;;5075639;28;19924;-75
2021/03/12 08:45:32;;;;;;;;;;;6.80;99.90;;;;;;5075742;28;19978;-80
2021/03/12 08:48:01;;;;;;;;;;;7.00;99.90;;;;;;5078312;28;19932;-76
2021/03/12 08:50:28;;;;;;;;;;;7.20;99.90;;;;;;5076509;28;19931;-73
2021/03/12 08:52:54;;;;;;;;;;;7.20;99.90;;;;;;5075607;28;19924;-76
2021/03/12 08:55:21;;;;;;;;;;;7.20;99.90;;;;;;5075315;28;19947;-72
2021/03/12 08:57:47;;;;;;;;;;;7.20;99.90;;;;;;5074790;28;20007;-75
2021/03/12 09:00:14;;;;;;;;;;;7.00;99.90;;;;;;5075405;28;19924;-76
2021/03/12 09:02:50;;;;;;;;;;;7.00;99.90;;;;;;5075104;28;19925;-76
2021/03/12 09:05:26;;;;;;;;;;;7.00;99.90;;;;;;5075164;28;19925;-75
2021/03/12 09:07:53;;;;;;;;;;;7.00;99.90;;;;;;5074989;28;19931;-76
2021/03/12 09:10:24;;;;;;;;;;;6.90;99.90;;;;;;5075067;28;19928;-75
2021/03/12 09:12:50;;;;;;;;;;;7.00;99.90;;;;;;5075206;28;19925;-75
2021/03/12 09:15:21;;;;;;;;;;;7.00;99.90;;;;;;5075153;28;19947;-73
2021/03/12 09:17:47;;;;;;;;;;;6.90;99.90;;;;;;5074696;28;19924;-74
2021/03/12 09:20:13;;;;;;;;;;;7.00;99.90;;;;;;5074816;28;19924;-73
2021/03/12 09:22:39;;;;;;;;;;;6.90;99.90;;;;;;5075132;28;19932;-75
2021/03/12 09:25:07;;;;;;;;;;;6.90;99.90;;;;;;5074505;28;19924;-73
2021/03/12 09:27:33;;;;;;;;;;;6.90;99.90;;;;;;5074174;28;19932;-75
2021/03/12 09:29:59;;;;;;;;;;;7.00;99.90;;;;;;5074565;28;19925;-74
2021/03/12 09:32:36;;;;;;;;;;;6.90;99.90;;;;;;5074157;28;19924;-72
2021/03/12 09:35:12;;;;;;;;;;;6.90;99.90;;;;;;5074239;28;19929;-74
2021/03/12 09:37:41;;;;;;;;;;;6.90;99.90;;;;;;5073902;28;19929;-74
2021/03/12 09:40:26;;;;;;;;;;;6.90;99.90;;;;;;5074544;28;20391;-75
2021/03/12 09:42:53;;;;;;;;;;;7.00;99.90;;;;;;5073965;28;20437;-75
2021/03/12 09:45:22;;;;;;;;;;;7.10;99.90;;;;;;5073944;28;19935;-75
2021/03/12 09:47:49;;;;;;;;;;;7.30;99.90;;;;;;5073899;28;19932;-79
2021/03/12 09:50:16;;;;;;;;;;;7.80;99.90;;;;;;5075070;28;20024;-73
2021/03/12 09:52:42;;;;;;;;;;;9.70;99.90;;;;;;5075044;28;19924;-77
2021/03/12 09:55:10;;;;;;;;;;;11.60;99.90;;;;;;5075082;28;19925;-78
2021/03/12 09:57:36;;;;;;;;;;;12.10;99.90;;;;;;5077617;28;19924;-79
2021/03/12 10:00:03;;;;;;;;;;;12.00;99.90;;;;;;5081377;28;20383;-79
2021/03/12 10:02:30;;;;;;;;;;;11.60;99.90;;;;;;5077324;28;19925;-78
2021/03/12 10:04:57;;;;;;;;;;;11.50;99.90;;;;;;5076924;28;19924;-78
2021/03/12 10:07:24;;;;;;;;;;;11.00;99.90;;;;;;5078193;28;19932;-78
2021/03/12 10:09:50;;;;;;;;;;;10.90;99.90;;;;;;5075837;28;19952;-72
2021/03/12 10:12:18;;;;;;;;;;;11.30;99.90;;;;;;5074162;28;19924;-73
2021/03/12 10:14:45;;;;;;;;;;;11.50;99.90;;;;;;5073374;28;19932;-73
2021/03/12 10:17:16;;;;;;;;;;;11.30;99.90;;;;;;5073066;28;19928;-74
2021/03/12 10:19:43;;;;;;;;;;;11.50;99.90;;;;;;5073766;28;19960;-74
2021/03/12 10:22:16;;;;;;;;;;;11.20;99.90;;;;;;5073793;28;19954;-76
2021/03/12 10:24:42;;;;;;;;;;;11.30;99.90;;;;;;5074019;28;19978;-77
2021/03/12 10:27:08;;;;;;;;;;;12.30;98.80;;;;;;5073866;28;19929;-77
2021/03/12 10:29:38;;;;;;;;;;;12.70;95.30;;;;;;5074073;28;19931;-76
2021/03/12 10:32:08;;;;;;;;;;;12.60;94.30;;;;;;5073563;28;19924;-76
2021/03/12 10:34:44;;;;;;;;;;;12.40;94.30;;;;;;5073095;28;20411;-76
2021/03/12 10:37:11;;;;;;;;;;;11.80;93.60;;;;;;5072950;28;19936;-76
2021/03/12 10:39:39;;;;;;;;;;;10.80;95.80;;;;;;5072974;28;19924;-76
2021/03/12 10:42:05;;;;;;;;;;;10.60;98.30;;;;;;5073105;28;19971;-77
2021/03/12 10:44:48;;;;;;;;;;;10.70;98.00;;;;;;5073404;28;20375;-75
2021/03/12 10:47:14;;;;;;;;;;;10.70;97.90;;;;;;5072678;28;20372;-75
2021/03/12 10:49:42;;;;;;;;;;;11.00;96.90;;;;;;5073271;28;19980;-75
2021/03/12 10:52:08;;;;;;;;;;;11.00;96.10;;;;;;5073108;28;19924;-76
2021/03/12 10:54:34;;;;;;;;;;;11.20;95.70;;;;;;5073296;28;19925;-75
2021/03/12 10:57:01;;;;;;;;;;;11.10;94.10;;;;;;5072980;28;19924;-75
2021/03/12 10:59:27;;;;;;;;;;;11.10;93.80;;;;;;5072908;28;19928;-75
2021/03/12 11:01:53;;;;;;;;;;;11.70;93.80;;;;;;5073109;28;19924;-75
2021/03/12 11:04:20;;;;;;;;;;;12.70;91.00;;;;;;5072947;28;19935;-75
2021/03/12 11:06:46;;;;;;;;;;;12.30;90.40;;;;;;5072884;28;19944;-75
2021/03/12 11:09:13;;;;;;;;;;;11.50;91.80;;;;;;5072398;28;19925;-75
2021/03/12 11:11:41;;;;;;;;;;;11.30;93.00;;;;;;5072222;28;19928;-75
2021/03/12 11:14:07;;;;;;;;;;;10.90;93.80;;;;;;5072705;28;19931;-75
2021/03/12 11:16:33;;;;;;;;;;;10.90;95.00;;;;;;5072436;28;19925;-75
2021/03/12 11:18:59;;;;;;;;;;;11.40;93.10;;;;;;5072649;28;19970;-75
2021/03/12 11:21:28;;;;;;;;;;;11.80;91.10;;;;;;5072858;28;19924;-75
2021/03/12 11:23:55;;;;;;;;;;;12.10;90.20;;;;;;5072435;28;19978;-75
2021/03/12 11:26:22;;;;;;;;;;;11.80;83.70;;;;;;5072482;28;19928;-75
2021/03/12 11:28:48;;;;;;;;;;;11.80;84.80;;;;;;5072275;28;19924;-75
2021/03/12 11:31:14;;;;;;;;;;;11.90;83.50;;;;;;5072856;28;19925;-75
2021/03/12 11:33:40;;;;;;;;;;;12.30;81.40;;;;;;5072728;28;19928;-75
2021/03/12 11:36:08;;;;;;;;;;;12.30;82.40;;;;;;5072141;28;19945;-75
2021/03/12 11:38:36;;;;;;;;;;;12.30;80.40;;;;;;5071887;28;20329;-75
2021/03/12 11:41:02;;;;;;;;;;;12.70;82.30;;;;;;5072496;28;20295;-75
2021/03/12 11:43:28;;;;;;;;;;;12.80;78.80;;;;;;5072449;28;19932;-75
2021/03/12 11:45:54;;;;;;;;;;;12.60;77.00;;;;;;5071968;28;19924;-75
2021/03/12 11:48:21;;;;;;;;;;;12.50;77.50;;;;;;5072288;28;19971;-75
2021/03/12 11:50:48;;;;;;;;;;;13.40;79.10;;;;;;5072189;28;19924;-75
2021/03/12 11:53:15;;;;;;;;;;;14.60;76.80;;;;;;5072590;28;19924;-75
2021/03/12 11:55:42;;;;;;;;;;;15.80;70.90;;;;;;5072030;28;19928;-75
2021/03/12 11:58:08;;;;;;;;;;;16.10;64.00;;;;;;5072177;28;19928;-74
2021/03/12 12:00:35;;;;;;;;;;;14.60;64.20;;;;;;5075916;28;20542;-76
2021/03/12 12:03:03;;;;;;;;;;;13.70;69.10;;;;;;5078668;28;20363;-75
2021/03/12 12:05:30;;;;;;;;;;;13.30;69.70;;;;;;5072406;28;19933;-75
2021/03/12 12:07:56;;;;;;;;;;;12.70;70.50;;;;;;5072056;28;19955;-75
2021/03/12 12:10:23;;;;;;;;;;;12.60;72.80;;;;;;5072308;28;19925;-75
2021/03/12 12:12:55;;;;;;;;;;;12.30;74.10;;;;;;5072192;28;19924;-75
2021/03/12 12:15:21;;;;;;;;;;;12.00;75.00;;;;;;5072010;28;19929;-75
2021/03/12 12:17:47;;;;;;;;;;;12.80;75.20;;;;;;5071972;28;19925;-75
2021/03/12 12:20:14;;;;;;;;;;;13.20;72.90;;;;;;5072672;28;19924;-75
2021/03/12 12:22:41;;;;;;;;;;;12.90;71.50;;;;;;5074516;28;19955;-75
2021/03/12 12:25:08;;;;;;;;;;;12.60;74.50;;;;;;5075696;28;19925;-75
2021/03/12 12:27:35;;;;;;;;;;;12.30;74.30;;;;;;5075362;28;19931;-75
2021/03/12 12:30:04;;;;;;;;;;;12.00;73.10;;;;;;5075766;28;19931;-75
2021/03/12 12:32:30;;;;;;;;;;;11.70;74.70;;;;;;5075515;28;19932;-75
2021/03/12 12:34:56;;;;;;;;;;;11.90;76.80;;;;;;5075836;28;19931;-75
2021/03/12 12:37:22;;;;;;;;;;;13.30;72.10;;;;;;5076731;28;19924;-74
2021/03/12 12:39:48;;;;;;;;;;;14.60;68.40;;;;;;5082455;28;20375;-75
2021/03/12 12:42:15;;;;;;;;;;;15.50;65.10;;;;;;5076108;28;19924;-74
2021/03/12 12:44:41;;;;;;;;;;;16.30;62.10;;;;;;5075622;28;19931;-75
2021/03/12 12:47:08;;;;;;;;;;;16.70;59.90;;;;;;5075010;28;19940;-75
2021/03/12 12:49:35;;;;;;;;;;;15.70;58.40;;;;;;5075729;28;19924;-74
2021/03/12 12:52:03;;;;;;;;;;;15.00;61.20;;;;;;5075580;28;19925;-75
2021/03/12 12:54:29;;;;;;;;;;;14.80;62.00;;;;;;5075351;28;19925;-75
2021/03/12 12:57:08;;;;;;;;;;;14.40;62.20;;;;;;5075086;28;19966;-76
2021/03/12 12:59:34;;;;;;;;;;;14.20;64.20;;;;;;5076019;28;19980;-75
2021/03/12 13:02:00;;;;;;;;;;;13.60;64.90;;;;;;5075377;28;20299;-75
2021/03/12 13:04:39;;;;;;;;;;;12.90;66.00;;;;;;5075155;28;19958;-75
2021/03/12 13:07:05;;;;;;;;;;;13.00;68.00;;;;;;5074999;28;19939;-75
2021/03/12 13:09:31;;;;;;;;;;;13.70;66.70;;;;;;5074580;28;20337;-76
2021/03/12 13:11:57;;;;;;;;;;;13.30;64.60;;;;;;5077338;28;20371;-75
2021/03/12 13:14:23;;;;;;;;;;;13.00;66.90;;;;;;5075608;28;19924;-75
2021/03/12 13:16:49;;;;;;;;;;;12.90;68.80;;;;;;5074633;28;20438;-74
2021/03/12 13:19:16;;;;;;;;;;;13.10;67.40;;;;;;5074481;28;19935;-75
2021/03/12 13:21:54;;;;;;;;;;;12.90;66.50;;;;;;5074951;28;19931;-75
2021/03/12 13:24:20;;;;;;;;;;;12.50;66.10;;;;;;5055708;28;19929;-75
2021/03/12 13:26:46;;;;;;;;;;;12.40;69.80;;;;;;5074141;28;20340;-74
2021/03/12 13:29:12;;;;;;;;;;;12.30;68.60;;;;;;5074581;28;19925;-76
2021/03/12 13:31:38;;;;;;;;;;;12.00;67.70;;;;;;5074765;28;19925;-76
2021/03/12 13:34:05;;;;;;;;;;;12.10;67.90;;;;;;5073652;28;20360;-75
2021/03/12 13:36:31;;;;;;;;;;;11.80;65.90;;;;;;5074130;28;19974;-75
2021/03/12 13:38:58;;;;;;;;;;;12.00;66.40;;;;;;5074016;28;19932;-75
2021/03/12 13:41:24;;;;;;;;;;;12.20;66.80;;;;;;5074260;28;19924;-75
2021/03/12 13:43:50;;;;;;;;;;;12.50;67.40;;;;;;5074323;28;20030;-76
2021/03/12 13:46:16;;;;;;;;;;;13.50;64.10;;;;;;5074243;28;19932;-75
2021/03/12 13:48:42;;;;;;;;;;;15.10;62.40;;;;;;5073927;28;19925;-74
2021/03/12 13:51:08;;;;;;;;;;;15.20;58.30;;;;;;5073945;28;19939;-75
2021/03/12 13:53:34;;;;;;;;;;;14.70;59.10;;;;;;5074115;28;20348;-74
2021/03/12 13:56:01;;;;;;;;;;;15.20;59.10;;;;;;5073831;28;19930;-74
2021/03/12 13:58:26;;;;;;;;;;;15.60;57.80;;;;;;5073920;28;19924;-74
2021/03/12 14:00:53;;;;;;;;;;;15.90;56.80;;;;;;5074057;28;19930;-75
2021/03/12 14:03:19;;;;;;;;;;;16.10;57.20;;;;;;5074045;28;19924;-74
2021/03/12 14:05:45;;;;;;;;;;;16.10;56.40;;;;;;5073490;28;19974;-74
2021/03/12 14:08:11;;;;;;;;;;;16.00;55.60;;;;;;5073486;28;20016;-75
2021/03/12 14:10:37;;;;;;;;;;;16.10;56.20;;;;;;5080050;28;19924;-74
2021/03/12 14:13:03;;;;;;;;;;;16.50;54.90;;;;;;5075194;28;20292;-74
2021/03/12 14:15:29;;;;;;;;;;;17.10;54.20;;;;;;5073389;28;19935;-74
2021/03/12 14:17:55;;;;;;;;;;;16.60;53.70;;;;;;5073446;28;20300;-77
2021/03/12 14:20:21;;;;;;;;;;;16.30;53.70;;;;;;5073565;28;19925;-74
2021/03/12 14:22:48;;;;;;;;;;;15.40;54.40;;;;;;5073535;28;19932;-75
2021/03/12 14:25:14;;;;;;;;;;;15.70;55.40;;;;;;5073490;28;20319;-76
2021/03/12 14:27:40;;;;;;;;;;;14.80;54.90;;;;;;5072674;28;20284;-76
2021/03/12 14:30:07;;;;;;;;;;;14.00;56.40;;;;;;5073470;28;19951;-75
2021/03/12 14:32:33;;;;;;;;;;;13.30;58.20;;;;;;5073290;28;20307;-77
2021/03/12 14:34:59;;;;;;;;;;;13.00;59.70;;;;;;5072981;28;20291;-75
2021/03/12 14:37:27;;;;;;;;;;;12.30;59.80;;;;;;5072337;28;19932;-75
2021/03/12 14:39:53;;;;;;;;;;;12.10;61.90;;;;;;5073465;28;19990;-75